sensor_id;sensor_type;location;lat;lon;timestamp;temperature;humidity
80134;SHT30;69443;51.442;10.564;2023-06-14T00:00:31;19.69;35.95
80134;SHT30;69443;51.442;10.564;2023-06-14T00:02:56;19.65;36.10
80134;SHT30;69443;51.442;10.564;2023-06-14T00:05:22;19.61;36.03
80134;SHT30;69443;51.442;10.564;2023-06-14T00:07:48;19.58;36.10
80134;SHT30;69443;51.442;10.564;2023-06-14T00:10:14;19.51;36.20
80134;SHT30;69443;51.442;10.564;2023-06-14T00:12:40;19.51;36.20
80134;SHT30;69443;51.442;10.564;2023-06-14T00:15:06;19.44;36.28
80134;SHT30;69443;51.442;10.564;2023-06-14T00:17:32;19.39;36.27
80134;SHT30;69443;51.442;10.564;2023-06-14T00:19:59;19.30;36.31
80134;SHT30;69443;51.442;10.564;2023-06-14T00:22:25;19.25;36.50
80134;SHT30;69443;51.442;10.564;2023-06-14T00:24:51;19.22;36.48
80134;SHT30;69443;51.442;10.564;2023-06-14T00:27:16;19.15;36.56
80134;SHT30;69443;51.442;10.564;2023-06-14T00:29:41;19.13;36.62
80134;SHT30;69443;51.442;10.564;2023-06-14T00:32:07;19.07;36.77
80134;SHT30;69443;51.442;10.564;2023-06-14T00:34:33;19.04;36.75
80134;SHT30;69443;51.442;10.564;2023-06-14T00:36:59;18.96;36.88
80134;SHT30;69443;51.442;10.564;2023-06-14T00:39:24;18.97;36.92
80134;SHT30;69443;51.442;10.564;2023-06-14T00:41:50;18.90;36.87
80134;SHT30;69443;51.442;10.564;2023-06-14T00:44:16;18.86;37.03
80134;SHT30;69443;51.442;10.564;2023-06-14T00:46:43;18.83;37.10
80134;SHT30;69443;51.442;10.564;2023-06-14T00:49:09;18.80;37.15
80134;SHT30;69443;51.442;10.564;2023-06-14T00:51:35;18.72;37.16
80134;SHT30;69443;51.442;10.564;2023-06-14T00:54:01;18.69;37.19
80134;SHT30;69443;51.442;10.564;2023-06-14T00:56:26;18.63;37.15
80134;SHT30;69443;51.442;10.564;2023-06-14T00:58:53;18.56;37.24
80134;SHT30;69443;51.442;10.564;2023-06-14T01:01:18;18.52;37.39
80134;SHT30;69443;51.442;10.564;2023-06-14T01:03:43;18.49;37.47
80134;SHT30;69443;51.442;10.564;2023-06-14T01:09:27;18.40;38.44
80134;SHT30;69443;51.442;10.564;2023-06-14T01:12:04;18.31;37.92
80134;SHT30;69443;51.442;10.564;2023-06-14T01:14:33;18.27;37.66
80134;SHT30;69443;51.442;10.564;2023-06-14T01:16:59;18.23;37.57
80134;SHT30;69443;51.442;10.564;2023-06-14T01:19:25;18.14;37.60
80134;SHT30;69443;51.442;10.564;2023-06-14T01:21:56;18.10;37.71
80134;SHT30;69443;51.442;10.564;2023-06-14T01:24:21;18.04;37.73
80134;SHT30;69443;51.442;10.564;2023-06-14T01:26:52;17.98;37.78
80134;SHT30;69443;51.442;10.564;2023-06-14T01:29:22;17.93;37.91
80134;SHT30;69443;51.442;10.564;2023-06-14T01:31:47;17.86;38.07
80134;SHT30;69443;51.442;10.564;2023-06-14T01:34:14;17.85;38.09
80134;SHT30;69443;51.442;10.564;2023-06-14T01:36:41;17.82;38.16
80134;SHT30;69443;51.442;10.564;2023-06-14T01:39:10;17.78;38.20
80134;SHT30;69443;51.442;10.564;2023-06-14T01:41:38;17.73;38.26
80134;SHT30;69443;51.442;10.564;2023-06-14T01:44:04;17.69;38.54
80134;SHT30;69443;51.442;10.564;2023-06-14T01:46:30;17.66;38.38
80134;SHT30;69443;51.442;10.564;2023-06-14T01:48:55;17.61;38.33
80134;SHT30;69443;51.442;10.564;2023-06-14T01:51:21;17.52;38.44
80134;SHT30;69443;51.442;10.564;2023-06-14T01:53:47;17.46;38.42
80134;SHT30;69443;51.442;10.564;2023-06-14T01:56:13;17.41;38.43
80134;SHT30;69443;51.442;10.564;2023-06-14T01:58:39;17.37;38.39
80134;SHT30;69443;51.442;10.564;2023-06-14T02:01:05;17.31;38.50
80134;SHT30;69443;51.442;10.564;2023-06-14T02:03:32;17.28;38.59
80134;SHT30;69443;51.442;10.564;2023-06-14T02:05:58;17.24;38.57
80134;SHT30;69443;51.442;10.564;2023-06-14T02:08:23;17.21;38.69
80134;SHT30;69443;51.442;10.564;2023-06-14T02:10:49;17.14;38.70
80134;SHT30;69443;51.442;10.564;2023-06-14T02:13:14;17.13;38.59
80134;SHT30;69443;51.442;10.564;2023-06-14T02:15:39;17.06;38.49
80134;SHT30;69443;51.442;10.564;2023-06-14T02:18:05;17.00;38.46
80134;SHT30;69443;51.442;10.564;2023-06-14T02:20:31;16.99;38.61
80134;SHT30;69443;51.442;10.564;2023-06-14T02:22:57;16.92;38.68
80134;SHT30;69443;51.442;10.564;2023-06-14T02:25:22;16.87;38.70
80134;SHT30;69443;51.442;10.564;2023-06-14T02:27:48;16.86;38.81
80134;SHT30;69443;51.442;10.564;2023-06-14T02:30:13;16.79;38.84
80134;SHT30;69443;51.442;10.564;2023-06-14T02:32:38;16.75;38.95
80134;SHT30;69443;51.442;10.564;2023-06-14T02:35:06;16.72;39.08
80134;SHT30;69443;51.442;10.564;2023-06-14T02:37:32;16.66;38.99
80134;SHT30;69443;51.442;10.564;2023-06-14T02:39:59;16.64;39.04
80134;SHT30;69443;51.442;10.564;2023-06-14T02:42:24;16.58;39.07
80134;SHT30;69443;51.442;10.564;2023-06-14T02:44:50;16.54;39.18
80134;SHT30;69443;51.442;10.564;2023-06-14T02:47:17;16.49;39.23
80134;SHT30;69443;51.442;10.564;2023-06-14T02:49:43;16.44;39.21
80134;SHT30;69443;51.442;10.564;2023-06-14T02:52:11;16.41;39.30
80134;SHT30;69443;51.442;10.564;2023-06-14T02:54:37;16.38;39.52
80134;SHT30;69443;51.442;10.564;2023-06-14T02:57:02;16.38;39.54
80134;SHT30;69443;51.442;10.564;2023-06-14T02:59:28;16.34;39.70
80134;SHT30;69443;51.442;10.564;2023-06-14T03:01:53;16.32;39.70
80134;SHT30;69443;51.442;10.564;2023-06-14T03:04:19;16.31;39.70
80134;SHT30;69443;51.442;10.564;2023-06-14T03:06:44;16.27;39.77
80134;SHT30;69443;51.442;10.564;2023-06-14T03:09:15;16.24;39.99
80134;SHT30;69443;51.442;10.564;2023-06-14T03:11:41;16.18;40.13
80134;SHT30;69443;51.442;10.564;2023-06-14T03:14:06;16.13;40.33
80134;SHT30;69443;51.442;10.564;2023-06-14T03:16:33;16.10;40.45
80134;SHT30;69443;51.442;10.564;2023-06-14T03:18:59;16.07;40.45
80134;SHT30;69443;51.442;10.564;2023-06-14T03:21:24;16.02;40.65
80134;SHT30;69443;51.442;10.564;2023-06-14T03:23:51;15.99;40.63
80134;SHT30;69443;51.442;10.564;2023-06-14T03:26:18;15.93;40.73
80134;SHT30;69443;51.442;10.564;2023-06-14T03:28:47;15.92;40.98
80134;SHT30;69443;51.442;10.564;2023-06-14T03:31:13;15.90;40.84
80134;SHT30;69443;51.442;10.564;2023-06-14T03:33:39;15.86;40.92
80134;SHT30;69443;51.442;10.564;2023-06-14T03:36:05;15.83;40.96
80134;SHT30;69443;51.442;10.564;2023-06-14T03:38:32;15.83;41.00
80134;SHT30;69443;51.442;10.564;2023-06-14T03:40:57;15.81;41.12
80134;SHT30;69443;51.442;10.564;2023-06-14T03:43:22;15.81;41.06
80134;SHT30;69443;51.442;10.564;2023-06-14T03:45:48;15.83;41.32
80134;SHT30;69443;51.442;10.564;2023-06-14T03:48:13;15.79;41.32
80134;SHT30;69443;51.442;10.564;2023-06-14T03:50:39;15.81;41.42
80134;SHT30;69443;51.442;10.564;2023-06-14T03:53:04;15.85;41.58
80134;SHT30;69443;51.442;10.564;2023-06-14T03:55:30;15.83;41.55
80134;SHT30;69443;51.442;10.564;2023-06-14T03:57:59;15.83;41.92
80134;SHT30;69443;51.442;10.564;2023-06-14T04:00:25;15.86;41.85
80134;SHT30;69443;51.442;10.564;2023-06-14T04:02:50;15.90;42.01
80134;SHT30;69443;51.442;10.564;2023-06-14T04:05:16;15.92;42.22
80134;SHT30;69443;51.442;10.564;2023-06-14T04:07:44;15.94;42.40
80134;SHT30;69443;51.442;10.564;2023-06-14T04:10:11;16.00;42.47
80134;SHT30;69443;51.442;10.564;2023-06-14T04:12:37;16.06;42.44
80134;SHT30;69443;51.442;10.564;2023-06-14T04:15:03;16.07;42.30
80134;SHT30;69443;51.442;10.564;2023-06-14T04:17:31;16.13;42.29
80134;SHT30;69443;51.442;10.564;2023-06-14T04:20:01;16.16;42.37
80134;SHT30;69443;51.442;10.564;2023-06-14T04:22:29;16.21;42.39
80134;SHT30;69443;51.442;10.564;2023-06-14T04:24:55;16.24;42.42
80134;SHT30;69443;51.442;10.564;2023-06-14T04:27:25;16.30;42.32
80134;SHT30;69443;51.442;10.564;2023-06-14T04:29:52;16.37;42.28
80134;SHT30;69443;51.442;10.564;2023-06-14T04:32:25;16.40;42.30
80134;SHT30;69443;51.442;10.564;2023-06-14T04:34:53;16.45;42.49
80134;SHT30;69443;51.442;10.564;2023-06-14T04:37:20;16.47;42.35
80134;SHT30;69443;51.442;10.564;2023-06-14T04:39:47;16.49;42.23
80134;SHT30;69443;51.442;10.564;2023-06-14T04:42:12;16.56;42.33
80134;SHT30;69443;51.442;10.564;2023-06-14T04:44:42;16.56;42.40
80134;SHT30;69443;51.442;10.564;2023-06-14T04:47:08;16.61;42.25
80134;SHT30;69443;51.442;10.564;2023-06-14T04:49:34;16.62;42.15
80134;SHT30;69443;51.442;10.564;2023-06-14T04:52:00;16.68;42.26
80134;SHT30;69443;51.442;10.564;2023-06-14T04:54:27;16.71;42.67
80134;SHT30;69443;51.442;10.564;2023-06-14T04:56:53;16.77;42.38
80134;SHT30;69443;51.442;10.564;2023-06-14T04:59:20;16.84;42.23
80134;SHT30;69443;51.442;10.564;2023-06-14T05:01:48;16.89;42.32
80134;SHT30;69443;51.442;10.564;2023-06-14T05:04:15;16.94;42.03
80134;SHT30;69443;51.442;10.564;2023-06-14T05:06:41;17.02;42.03
80134;SHT30;69443;51.442;10.564;2023-06-14T05:09:10;17.10;42.09
80134;SHT30;69443;51.442;10.564;2023-06-14T05:11:35;17.21;42.00
80134;SHT30;69443;51.442;10.564;2023-06-14T05:14:00;17.28;41.69
80134;SHT30;69443;51.442;10.564;2023-06-14T05:16:26;17.37;41.76
80134;SHT30;69443;51.442;10.564;2023-06-14T05:18:52;17.44;41.65
80134;SHT30;69443;51.442;10.564;2023-06-14T05:21:18;17.51;41.62
80134;SHT30;69443;51.442;10.564;2023-06-14T05:23:44;17.62;41.86
80134;SHT30;69443;51.442;10.564;2023-06-14T05:26:10;17.71;41.69
80134;SHT30;69443;51.442;10.564;2023-06-14T05:28:36;17.80;41.37
80134;SHT30;69443;51.442;10.564;2023-06-14T05:31:01;17.90;41.31
80134;SHT30;69443;51.442;10.564;2023-06-14T05:33:27;18.00;41.26
80134;SHT30;69443;51.442;10.564;2023-06-14T05:35:52;18.10;41.19
80134;SHT30;69443;51.442;10.564;2023-06-14T05:38:18;18.21;41.22
80134;SHT30;69443;51.442;10.564;2023-06-14T05:40:43;18.31;40.91
80134;SHT30;69443;51.442;10.564;2023-06-14T05:43:08;18.41;40.92
80134;SHT30;69443;51.442;10.564;2023-06-14T05:45:34;18.49;40.92
80134;SHT30;69443;51.442;10.564;2023-06-14T05:48:00;18.60;40.54
80134;SHT30;69443;51.442;10.564;2023-06-14T05:50:25;18.75;40.63
80134;SHT30;69443;51.442;10.564;2023-06-14T05:52:50;18.80;41.06
80134;SHT30;69443;51.442;10.564;2023-06-14T05:55:17;18.94;40.61
80134;SHT30;69443;51.442;10.564;2023-06-14T05:57:42;19.00;40.35
80134;SHT30;69443;51.442;10.564;2023-06-14T06:00:08;19.13;41.04
80134;SHT30;69443;51.442;10.564;2023-06-14T06:02:40;19.21;40.46
80134;SHT30;69443;51.442;10.564;2023-06-14T06:05:05;19.32;40.27
80134;SHT30;69443;51.442;10.564;2023-06-14T06:07:31;19.42;40.24
80134;SHT30;69443;51.442;10.564;2023-06-14T06:09:56;19.51;40.24
80134;SHT30;69443;51.442;10.564;2023-06-14T06:12:22;19.59;40.22
80134;SHT30;69443;51.442;10.564;2023-06-14T06:14:47;19.66;39.95
80134;SHT30;69443;51.442;10.564;2023-06-14T06:17:12;19.77;39.96
80134;SHT30;69443;51.442;10.564;2023-06-14T06:19:38;19.89;39.88
80134;SHT30;69443;51.442;10.564;2023-06-14T06:22:04;20.00;39.81
80134;SHT30;69443;51.442;10.564;2023-06-14T06:24:31;20.08;39.85
80134;SHT30;69443;51.442;10.564;2023-06-14T06:26:57;20.21;39.81
80134;SHT30;69443;51.442;10.564;2023-06-14T06:29:22;20.32;39.81
80134;SHT30;69443;51.442;10.564;2023-06-14T06:31:47;20.44;39.72
80134;SHT30;69443;51.442;10.564;2023-06-14T06:34:13;20.51;40.39
80134;SHT30;69443;51.442;10.564;2023-06-14T06:36:38;20.65;39.59
80134;SHT30;69443;51.442;10.564;2023-06-14T06:39:04;20.73;39.39
80134;SHT30;69443;51.442;10.564;2023-06-14T06:41:37;20.81;40.08
80134;SHT30;69443;51.442;10.564;2023-06-14T06:44:05;20.94;40.68
80134;SHT30;69443;51.442;10.564;2023-06-14T06:46:31;21.00;39.59
80134;SHT30;69443;51.442;10.564;2023-06-14T06:48:56;21.10;39.77
80134;SHT30;69443;51.442;10.564;2023-06-14T06:51:22;21.17;39.35
80134;SHT30;69443;51.442;10.564;2023-06-14T06:53:52;21.25;39.98
80134;SHT30;69443;51.442;10.564;2023-06-14T06:56:18;21.34;39.44
80134;SHT30;69443;51.442;10.564;2023-06-14T06:58:44;21.42;40.01
80134;SHT30;69443;51.442;10.564;2023-06-14T07:01:10;21.46;39.63
80134;SHT30;69443;51.442;10.564;2023-06-14T07:03:35;21.52;40.17
80134;SHT30;69443;51.442;10.564;2023-06-14T07:06:00;21.62;39.38
80134;SHT30;69443;51.442;10.564;2023-06-14T07:08:26;21.69;38.50
80134;SHT30;69443;51.442;10.564;2023-06-14T07:10:52;21.77;38.56
80134;SHT30;69443;51.442;10.564;2023-06-14T07:13:17;21.87;38.94
80134;SHT30;69443;51.442;10.564;2023-06-14T07:15:43;21.98;38.35
80134;SHT30;69443;51.442;10.564;2023-06-14T07:18:08;22.08;39.82
80134;SHT30;69443;51.442;10.564;2023-06-14T07:20:34;22.17;38.68
80134;SHT30;69443;51.442;10.564;2023-06-14T07:22:59;22.25;38.54
80134;SHT30;69443;51.442;10.564;2023-06-14T07:25:24;22.35;38.73
80134;SHT30;69443;51.442;10.564;2023-06-14T07:27:50;22.44;37.94
80134;SHT30;69443;51.442;10.564;2023-06-14T07:30:15;22.53;37.95
80134;SHT30;69443;51.442;10.564;2023-06-14T07:32:41;22.62;38.35
80134;SHT30;69443;51.442;10.564;2023-06-14T07:35:07;22.76;37.82
80134;SHT30;69443;51.442;10.564;2023-06-14T07:37:33;22.82;38.64
80134;SHT30;69443;51.442;10.564;2023-06-14T07:39:58;22.94;38.13
80134;SHT30;69443;51.442;10.564;2023-06-14T07:42:23;23.06;38.34
80134;SHT30;69443;51.442;10.564;2023-06-14T07:44:49;23.19;37.90
80134;SHT30;69443;51.442;10.564;2023-06-14T07:47:16;23.21;37.40
80134;SHT30;69443;51.442;10.564;2023-06-14T07:49:41;23.32;37.30
80134;SHT30;69443;51.442;10.564;2023-06-14T07:52:07;23.41;36.87
80134;SHT30;69443;51.442;10.564;2023-06-14T07:54:32;23.46;36.83
80134;SHT30;69443;51.442;10.564;2023-06-14T07:56:58;23.51;36.81
80134;SHT30;69443;51.442;10.564;2023-06-14T07:59:25;23.56;36.73
80134;SHT30;69443;51.442;10.564;2023-06-14T08:01:51;23.65;36.69
80134;SHT30;69443;51.442;10.564;2023-06-14T08:04:17;23.73;36.51
80134;SHT30;69443;51.442;10.564;2023-06-14T08:06:42;23.77;36.14
80134;SHT30;69443;51.442;10.564;2023-06-14T08:09:11;23.86;36.33
80134;SHT30;69443;51.442;10.564;2023-06-14T08:11:37;24.00;36.57
80134;SHT30;69443;51.442;10.564;2023-06-14T08:14:03;24.07;36.06
80134;SHT30;69443;51.442;10.564;2023-06-14T08:16:29;24.14;35.90
80134;SHT30;69443;51.442;10.564;2023-06-14T08:18:55;24.21;35.89
80134;SHT30;69443;51.442;10.564;2023-06-14T08:21:21;24.24;35.68
80134;SHT30;69443;51.442;10.564;2023-06-14T08:23:46;24.26;35.40
80134;SHT30;69443;51.442;10.564;2023-06-14T08:26:12;24.28;35.64
80134;SHT30;69443;51.442;10.564;2023-06-14T08:28:38;24.32;35.60
80134;SHT30;69443;51.442;10.564;2023-06-14T08:31:03;24.31;35.23
80134;SHT30;69443;51.442;10.564;2023-06-14T08:33:28;24.31;35.36
80134;SHT30;69443;51.442;10.564;2023-06-14T08:35:54;24.29;35.24
80134;SHT30;69443;51.442;10.564;2023-06-14T08:38:20;24.20;34.71
80134;SHT30;69443;51.442;10.564;2023-06-14T08:40:50;24.21;34.79
80134;SHT30;69443;51.442;10.564;2023-06-14T08:43:16;24.31;35.39
80134;SHT30;69443;51.442;10.564;2023-06-14T08:45:42;24.38;35.49
80134;SHT30;69443;51.442;10.564;2023-06-14T08:48:07;24.43;34.61
80134;SHT30;69443;51.442;10.564;2023-06-14T08:50:34;24.49;34.35
80134;SHT30;69443;51.442;10.564;2023-06-14T08:53:02;24.59;35.06
80134;SHT30;69443;51.442;10.564;2023-06-14T08:55:29;24.73;34.84
80134;SHT30;69443;51.442;10.564;2023-06-14T08:57:56;24.82;35.13
80134;SHT30;69443;51.442;10.564;2023-06-14T09:00:26;24.91;34.80
80134;SHT30;69443;51.442;10.564;2023-06-14T09:02:52;25.00;34.74
80134;SHT30;69443;51.442;10.564;2023-06-14T09:05:26;25.14;33.96
80134;SHT30;69443;51.442;10.564;2023-06-14T09:07:52;25.22;34.60
80134;SHT30;69443;51.442;10.564;2023-06-14T09:10:20;25.27;33.83
80134;SHT30;69443;51.442;10.564;2023-06-14T09:12:46;25.28;34.28
80134;SHT30;69443;51.442;10.564;2023-06-14T09:15:12;25.31;34.25
80134;SHT30;69443;51.442;10.564;2023-06-14T09:17:39;25.37;34.45
80134;SHT30;69443;51.442;10.564;2023-06-14T09:20:06;25.46;34.48
80134;SHT30;69443;51.442;10.564;2023-06-14T09:22:34;25.50;34.51
80134;SHT30;69443;51.442;10.564;2023-06-14T09:25:01;25.62;34.12
80134;SHT30;69443;51.442;10.564;2023-06-14T09:27:29;25.70;34.27
80134;SHT30;69443;51.442;10.564;2023-06-14T09:29:54;25.83;34.15
80134;SHT30;69443;51.442;10.564;2023-06-14T09:32:23;25.98;34.17
80134;SHT30;69443;51.442;10.564;2023-06-14T09:34:48;26.13;34.06
80134;SHT30;69443;51.442;10.564;2023-06-14T09:37:30;26.28;33.67
80134;SHT30;69443;51.442;10.564;2023-06-14T09:39:56;26.46;33.38
80134;SHT30;69443;51.442;10.564;2023-06-14T09:42:22;26.62;33.62
80134;SHT30;69443;51.442;10.564;2023-06-14T09:44:52;26.72;33.08
80134;SHT30;69443;51.442;10.564;2023-06-14T09:47:17;26.76;32.38
80134;SHT30;69443;51.442;10.564;2023-06-14T09:49:43;26.75;32.34
80134;SHT30;69443;51.442;10.564;2023-06-14T09:52:17;26.79;33.05
80134;SHT30;69443;51.442;10.564;2023-06-14T09:54:44;26.78;32.84
80134;SHT30;69443;51.442;10.564;2023-06-14T09:57:14;26.80;33.35
80134;SHT30;69443;51.442;10.564;2023-06-14T09:59:43;26.83;32.78
80134;SHT30;69443;51.442;10.564;2023-06-14T10:02:14;26.83;32.65
80134;SHT30;69443;51.442;10.564;2023-06-14T10:04:46;26.93;32.58
80134;SHT30;69443;51.442;10.564;2023-06-14T10:07:19;27.03;31.97
80134;SHT30;69443;51.442;10.564;2023-06-14T10:09:46;27.14;32.23
80134;SHT30;69443;51.442;10.564;2023-06-14T10:12:16;27.28;32.86
80134;SHT30;69443;51.442;10.564;2023-06-14T10:14:50;27.28;30.98
80134;SHT30;69443;51.442;10.564;2023-06-14T10:17:31;27.31;31.59
80134;SHT30;69443;51.442;10.564;2023-06-14T10:20:37;27.27;30.29
80134;SHT30;69443;51.442;10.564;2023-06-14T10:23:19;27.27;30.88
80134;SHT30;69443;51.442;10.564;2023-06-14T10:25:50;27.27;31.68
80134;SHT30;69443;51.442;10.564;2023-06-14T10:28:17;27.22;31.31
80134;SHT30;69443;51.442;10.564;2023-06-14T10:31:11;27.27;31.79
80134;SHT30;69443;51.442;10.564;2023-06-14T10:33:56;27.12;29.81
80134;SHT30;69443;51.442;10.564;2023-06-14T10:41:39;27.10;30.98
80134;SHT30;69443;51.442;10.564;2023-06-14T10:46:40;27.08;31.33
80134;SHT30;69443;51.442;10.564;2023-06-14T10:49:05;27.07;31.76
80134;SHT30;69443;51.442;10.564;2023-06-14T10:51:38;27.05;32.04
80134;SHT30;69443;51.442;10.564;2023-06-14T10:54:20;27.04;32.56
80134;SHT30;69443;51.442;10.564;2023-06-14T10:56:47;27.00;32.30
80134;SHT30;69443;51.442;10.564;2023-06-14T10:59:14;27.00;32.74
80134;SHT30;69443;51.442;10.564;2023-06-14T11:01:57;26.98;30.79
80134;SHT30;69443;51.442;10.564;2023-06-14T11:04:34;27.04;31.20
80134;SHT30;69443;51.442;10.564;2023-06-14T11:10:14;27.22;30.61
80134;SHT30;69443;51.442;10.564;2023-06-14T11:12:47;27.37;31.24
80134;SHT30;69443;51.442;10.564;2023-06-14T11:15:13;27.48;30.66
80134;SHT30;69443;51.442;10.564;2023-06-14T11:17:38;27.59;30.17
80134;SHT30;69443;51.442;10.564;2023-06-14T11:20:08;27.77;28.94
80134;SHT30;69443;51.442;10.564;2023-06-14T11:22:44;27.92;29.32
80134;SHT30;69443;51.442;10.564;2023-06-14T11:25:11;28.03;29.68
80134;SHT30;69443;51.442;10.564;2023-06-14T11:27:36;28.05;29.30
80134;SHT30;69443;51.442;10.564;2023-06-14T11:30:02;28.11;29.93
80134;SHT30;69443;51.442;10.564;2023-06-14T11:32:27;28.05;28.70
80134;SHT30;69443;51.442;10.564;2023-06-14T11:34:53;28.05;28.79
80134;SHT30;69443;51.442;10.564;2023-06-14T11:37:19;28.04;28.93
80134;SHT30;69443;51.442;10.564;2023-06-14T11:39:44;28.03;28.61
80134;SHT30;69443;51.442;10.564;2023-06-14T11:42:15;28.04;28.82
80134;SHT30;69443;51.442;10.564;2023-06-14T11:44:40;28.03;29.09
80134;SHT30;69443;51.442;10.564;2023-06-14T11:47:06;28.08;30.34
80134;SHT30;69443;51.442;10.564;2023-06-14T11:49:38;28.05;29.14
80134;SHT30;69443;51.442;10.564;2023-06-14T11:52:03;28.03;28.94
80134;SHT30;69443;51.442;10.564;2023-06-14T11:54:29;28.07;29.66
80134;SHT30;69443;51.442;10.564;2023-06-14T11:56:54;28.12;29.80
80134;SHT30;69443;51.442;10.564;2023-06-14T11:59:20;28.17;29.35
80134;SHT30;69443;51.442;10.564;2023-06-14T12:01:47;28.31;29.57
80134;SHT30;69443;51.442;10.564;2023-06-14T12:04:13;28.45;29.85
80134;SHT30;69443;51.442;10.564;2023-06-14T12:06:39;28.53;28.47
80134;SHT30;69443;51.442;10.564;2023-06-14T12:09:05;28.55;28.23
80134;SHT30;69443;51.442;10.564;2023-06-14T12:11:35;28.60;28.70
80134;SHT30;69443;51.442;10.564;2023-06-14T12:14:00;28.62;28.52
80134;SHT30;69443;51.442;10.564;2023-06-14T12:16:31;28.62;28.66
80134;SHT30;69443;51.442;10.564;2023-06-14T12:19:00;28.49;28.40
80134;SHT30;69443;51.442;10.564;2023-06-14T12:21:27;28.45;28.67
80134;SHT30;69443;51.442;10.564;2023-06-14T12:23:54;28.38;28.58
80134;SHT30;69443;51.442;10.564;2023-06-14T12:26:20;28.27;28.29
80134;SHT30;69443;51.442;10.564;2023-06-14T12:28:46;28.21;29.11
80134;SHT30;69443;51.442;10.564;2023-06-14T12:31:14;28.18;29.29
80134;SHT30;69443;51.442;10.564;2023-06-14T12:33:40;28.14;29.35
80134;SHT30;69443;51.442;10.564;2023-06-14T12:36:09;28.11;29.46
80134;SHT30;69443;51.442;10.564;2023-06-14T12:38:35;28.18;29.74
80134;SHT30;69443;51.442;10.564;2023-06-14T12:41:01;28.20;29.79
80134;SHT30;69443;51.442;10.564;2023-06-14T12:43:26;28.20;29.46
80134;SHT30;69443;51.442;10.564;2023-06-14T12:45:52;28.05;29.09
80134;SHT30;69443;51.442;10.564;2023-06-14T12:48:17;28.01;29.09
80134;SHT30;69443;51.442;10.564;2023-06-14T12:50:43;27.98;29.48
80134;SHT30;69443;51.442;10.564;2023-06-14T12:53:08;27.96;29.76
80134;SHT30;69443;51.442;10.564;2023-06-14T12:55:34;27.89;29.30
80134;SHT30;69443;51.442;10.564;2023-06-14T12:57:59;27.80;29.56
80134;SHT30;69443;51.442;10.564;2023-06-14T13:00:25;27.79;29.93
80134;SHT30;69443;51.442;10.564;2023-06-14T13:02:55;27.86;30.29
80134;SHT30;69443;51.442;10.564;2023-06-14T13:05:20;27.89;30.18
80134;SHT30;69443;51.442;10.564;2023-06-14T13:07:46;27.80;29.92
80134;SHT30;69443;51.442;10.564;2023-06-14T13:10:11;27.76;29.75
80134;SHT30;69443;51.442;10.564;2023-06-14T13:12:37;27.74;29.91
80134;SHT30;69443;51.442;10.564;2023-06-14T13:15:02;27.77;29.96
80134;SHT30;69443;51.442;10.564;2023-06-14T13:17:28;27.77;29.91
80134;SHT30;69443;51.442;10.564;2023-06-14T13:19:53;27.73;29.89
80134;SHT30;69443;51.442;10.564;2023-06-14T13:22:19;27.73;30.05
80134;SHT30;69443;51.442;10.564;2023-06-14T13:24:45;27.70;30.15
80134;SHT30;69443;51.442;10.564;2023-06-14T13:27:10;27.58;30.44
80134;SHT30;69443;51.442;10.564;2023-06-14T13:29:36;27.45;30.27
80134;SHT30;69443;51.442;10.564;2023-06-14T13:32:02;27.38;30.63
80134;SHT30;69443;51.442;10.564;2023-06-14T13:34:28;27.34;31.00
80134;SHT30;69443;51.442;10.564;2023-06-14T13:36:53;27.34;30.95
80134;SHT30;69443;51.442;10.564;2023-06-14T13:39:19;27.37;31.00
80134;SHT30;69443;51.442;10.564;2023-06-14T13:41:44;27.37;30.65
80134;SHT30;69443;51.442;10.564;2023-06-14T13:44:09;27.42;30.84
80134;SHT30;69443;51.442;10.564;2023-06-14T13:46:39;27.41;30.72
80134;SHT30;69443;51.442;10.564;2023-06-14T13:49:04;27.39;30.67
80134;SHT30;69443;51.442;10.564;2023-06-14T13:51:30;27.37;30.97
80134;SHT30;69443;51.442;10.564;2023-06-14T13:53:55;27.35;31.11
80134;SHT30;69443;51.442;10.564;2023-06-14T13:56:21;27.38;31.34
80134;SHT30;69443;51.442;10.564;2023-06-14T13:58:48;27.38;31.32
80134;SHT30;69443;51.442;10.564;2023-06-14T14:01:13;27.42;31.39
80134;SHT30;69443;51.442;10.564;2023-06-14T14:03:38;27.37;31.15
80134;SHT30;69443;51.442;10.564;2023-06-14T14:06:04;27.34;31.09
80134;SHT30;69443;51.442;10.564;2023-06-14T14:08:31;27.34;30.84
80134;SHT30;69443;51.442;10.564;2023-06-14T14:10:56;27.38;31.00
80134;SHT30;69443;51.442;10.564;2023-06-14T14:13:22;27.31;30.69
80134;SHT30;69443;51.442;10.564;2023-06-14T14:15:47;27.31;31.08
80134;SHT30;69443;51.442;10.564;2023-06-14T14:18:14;27.28;31.25
80134;SHT30;69443;51.442;10.564;2023-06-14T14:20:40;27.21;31.24
80134;SHT30;69443;51.442;10.564;2023-06-14T14:23:06;27.27;31.44
80134;SHT30;69443;51.442;10.564;2023-06-14T14:25:31;27.31;31.60
80134;SHT30;69443;51.442;10.564;2023-06-14T14:27:56;27.35;31.65
80134;SHT30;69443;51.442;10.564;2023-06-14T14:30:22;27.30;31.73
80134;SHT30;69443;51.442;10.564;2023-06-14T14:32:49;27.32;31.81
80134;SHT30;69443;51.442;10.564;2023-06-14T14:35:16;27.32;31.97
80134;SHT30;69443;51.442;10.564;2023-06-14T14:37:42;27.28;31.65
80134;SHT30;69443;51.442;10.564;2023-06-14T14:40:08;27.30;31.75
80134;SHT30;69443;51.442;10.564;2023-06-14T14:42:35;27.28;31.65
80134;SHT30;69443;51.442;10.564;2023-06-14T14:45:00;27.27;31.58
80134;SHT30;69443;51.442;10.564;2023-06-14T14:47:25;27.22;31.32
80134;SHT30;69443;51.442;10.564;2023-06-14T14:49:51;27.28;31.57
80134;SHT30;69443;51.442;10.564;2023-06-14T14:52:17;27.28;31.60
80134;SHT30;69443;51.442;10.564;2023-06-14T14:54:42;27.34;31.59
80134;SHT30;69443;51.442;10.564;2023-06-14T14:57:08;27.34;31.46
80134;SHT30;69443;51.442;10.564;2023-06-14T14:59:33;27.35;31.64
80134;SHT30;69443;51.442;10.564;2023-06-14T15:01:59;27.35;31.58
80134;SHT30;69443;51.442;10.564;2023-06-14T15:04:25;27.37;31.44
80134;SHT30;69443;51.442;10.564;2023-06-14T15:06:50;27.30;31.60
80134;SHT30;69443;51.442;10.564;2023-06-14T15:09:16;27.34;31.69
80134;SHT30;69443;51.442;10.564;2023-06-14T15:11:41;27.35;31.72
80134;SHT30;69443;51.442;10.564;2023-06-14T15:14:09;27.42;31.82
80134;SHT30;69443;51.442;10.564;2023-06-14T15:16:34;27.48;31.81
80134;SHT30;69443;51.442;10.564;2023-06-14T15:19:00;27.43;31.89
80134;SHT30;69443;51.442;10.564;2023-06-14T15:21:25;27.42;31.84
80134;SHT30;69443;51.442;10.564;2023-06-14T15:23:51;27.41;31.95
80134;SHT30;69443;51.442;10.564;2023-06-14T15:26:18;27.41;31.96